Time;durP1;ratioP1;P1;durP2;ratioP2;P2;SDS_P1;SDS_P2;PMS_P1;PMS_P2;Temp;Humidity;BMP_temperature;BMP_pressure;BME280_temperature;BME280_humidity;BME280_pressure;Samples;Min_cycle;Max_cycle;Signal;HPM_P1;HPM_P2
2021/04/14 00:01:56;;;;;;;14.13;9.83;;;2.60;99.90;;;;;;5072375;28;20672;-83
2021/04/14 00:04:22;;;;;;;13.87;10.10;;;2.70;99.90;;;;;;5069725;28;20191;-83
2021/04/14 00:06:49;;;;;;;14.37;10.27;;;2.70;99.90;;;;;;5071285;28;20696;-82
2021/04/14 00:09:16;;;;;;;15.67;9.93;;;2.70;99.90;;;;;;5074152;28;20204;-82
2021/04/14 00:11:42;;;;;;;14.47;9.47;;;2.60;99.90;;;;;;5071067;28;20204;-83
2021/04/14 00:14:09;;;;;;;12.70;9.33;;;2.70;99.90;;;;;;5065112;28;20242;-82
2021/04/14 00:16:36;;;;;;;14.37;10.20;;;2.60;99.90;;;;;;5068838;28;20249;-82
2021/04/14 00:19:03;;;;;;;14.70;9.63;;;2.60;99.90;;;;;;5069892;28;20654;-82
2021/04/14 00:21:30;;;;;;;13.13;9.43;;;2.60;99.90;;;;;;5067413;28;20253;-83
2021/04/14 00:23:57;;;;;;;13.37;9.67;;;2.50;99.90;;;;;;5073196;28;20257;-82
2021/04/14 00:26:24;;;;;;;13.27;9.67;;;2.50;99.90;;;;;;5076231;28;20188;-83
2021/04/14 00:28:51;;;;;;;13.47;9.77;;;2.60;99.90;;;;;;5093965;28;20238;-82
2021/04/14 00:31:18;;;;;;;13.33;9.73;;;2.50;99.90;;;;;;5072811;28;20208;-83
2021/04/14 00:33:46;;;;;;;13.97;10.07;;;2.50;99.90;;;;;;5074256;28;20266;-83
2021/04/14 00:36:12;;;;;;;13.30;9.53;;;2.40;99.90;;;;;;5073520;28;20228;-82
2021/04/14 00:38:39;;;;;;;15.17;10.20;;;2.40;99.90;;;;;;5074289;28;20218;-83
2021/04/14 00:41:10;;;;;;;16.80;9.90;;;2.30;99.90;;;;;;5088352;28;20199;-83
2021/04/14 00:43:38;;;;;;;14.63;10.27;;;2.40;99.90;;;;;;5054815;28;20670;-82
2021/04/14 00:46:05;;;;;;;13.43;9.43;;;2.40;99.90;;;;;;5074400;28;20233;-83
2021/04/14 00:48:32;;;;;;;14.07;10.00;;;2.30;99.90;;;;;;5073912;28;20200;-83
2021/04/14 00:51:00;;;;;;;11.90;9.67;;;2.30;99.90;;;;;;5078517;28;20717;-83
2021/04/14 00:53:27;;;;;;;13.80;10.07;;;2.20;99.90;;;;;;5112907;28;20621;-83
2021/04/14 00:55:54;;;;;;;16.03;10.07;;;2.20;99.90;;;;;;5099028;28;20231;-83
2021/04/14 00:58:21;;;;;;;16.43;9.90;;;2.30;99.90;;;;;;5093074;28;20218;-83
2021/04/14 01:00:50;;;;;;;13.27;9.57;;;2.30;99.90;;;;;;5092762;28;20199;-82
2021/04/14 01:03:22;;;;;;;15.03;9.70;;;2.20;99.90;;;;;;5094883;28;20197;-83
2021/04/14 01:05:51;;;;;;;14.60;9.90;;;2.30;99.90;;;;;;5105318;28;20199;-83
2021/04/14 01:08:17;;;;;;;13.30;9.57;;;2.20;99.90;;;;;;5093403;28;20226;-83
2021/04/14 01:10:44;;;;;;;12.70;9.13;;;2.20;99.90;;;;;;5093672;28;20304;-83
2021/04/14 01:13:11;;;;;;;14.53;9.33;;;2.20;99.90;;;;;;5093309;28;20243;-83
2021/04/14 01:15:40;;;;;;;13.63;9.53;;;2.20;99.90;;;;;;5095691;28;20669;-82
2021/04/14 01:18:09;;;;;;;12.90;9.27;;;2.10;99.90;;;;;;5093688;28;20307;-83
2021/04/14 01:20:36;;;;;;;13.37;9.43;;;2.10;99.90;;;;;;5093726;28;20286;-82
2021/04/14 01:23:06;;;;;;;14.17;9.27;;;2.00;99.90;;;;;;5096183;28;20270;-83
2021/04/14 01:25:35;;;;;;;13.10;9.80;;;1.90;99.90;;;;;;5098196;28;20692;-83
2021/04/14 01:28:03;;;;;;;13.70;9.23;;;1.90;99.90;;;;;;5079311;28;20199;-82
2021/04/14 01:30:30;;;;;;;15.27;9.97;;;1.80;99.90;;;;;;5096472;28;20542;-82
2021/04/14 01:32:58;;;;;;;13.87;9.37;;;1.90;99.90;;;;;;5100370;28;20226;-83
2021/04/14 01:35:27;;;;;;;13.20;9.20;;;1.80;99.90;;;;;;5116239;28;20713;-83
2021/04/14 01:37:54;;;;;;;13.27;9.37;;;1.80;99.90;;;;;;5106520;28;20244;-82
2021/04/14 01:40:23;;;;;;;13.07;9.60;;;1.80;99.90;;;;;;5095439;28;20234;-82
2021/04/14 01:42:49;;;;;;;13.67;9.27;;;1.90;99.90;;;;;;5095559;28;20667;-82
2021/04/14 01:45:19;;;;;;;12.37;9.07;;;1.80;99.90;;;;;;5095566;28;20297;-83
2021/04/14 01:47:46;;;;;;;17.30;9.03;;;1.60;99.90;;;;;;5095366;28;20292;-82
2021/04/14 01:50:13;;;;;;;13.37;9.23;;;1.50;99.90;;;;;;5095265;28;20282;-83
2021/04/14 01:52:39;;;;;;;14.00;9.20;;;1.50;99.90;;;;;;5095654;28;20286;-82
2021/04/14 01:55:08;;;;;;;12.87;8.70;;;1.40;99.90;;;;;;5094479;28;20285;-83
2021/04/14 01:57:35;;;;;;;11.50;8.40;;;1.40;99.90;;;;;;5095658;28;20437;-83
2021/04/14 02:00:06;;;;;;;12.93;8.87;;;1.30;99.90;;;;;;5091932;28;20227;-83
2021/04/14 02:02:32;;;;;;;12.80;8.63;;;1.30;99.90;;;;;;5095086;28;20230;-83
2021/04/14 02:04:58;;;;;;;13.27;8.90;;;1.30;99.90;;;;;;5095494;28;20198;-82
2021/04/14 02:07:25;;;;;;;12.53;8.97;;;1.30;99.90;;;;;;5093910;28;21569;-82
2021/04/14 02:09:51;;;;;;;12.73;8.53;;;1.20;99.90;;;;;;5094614;28;20191;-82
2021/04/14 02:12:18;;;;;;;12.93;8.87;;;1.20;99.90;;;;;;5093772;28;20250;-83
2021/04/14 02:14:45;;;;;;;13.20;8.70;;;1.20;99.90;;;;;;5092801;28;20230;-82
2021/04/14 02:17:11;;;;;;;12.53;8.73;;;1.20;99.90;;;;;;5095246;28;20242;-82
2021/04/14 02:19:38;;;;;;;13.83;9.33;;;1.20;99.90;;;;;;5094588;28;20305;-83
2021/04/14 02:22:04;;;;;;;11.93;8.53;;;1.20;99.90;;;;;;5094533;28;20230;-83
2021/04/14 02:24:31;;;;;;;11.97;8.50;;;1.30;99.90;;;;;;5094578;28;20198;-83
2021/04/14 02:26:57;;;;;;;12.77;8.57;;;1.40;99.90;;;;;;5094414;28;20281;-82
2021/04/14 02:29:23;;;;;;;12.77;8.70;;;1.40;99.90;;;;;;5114201;28;20639;-82
2021/04/14 02:31:51;;;;;;;14.80;8.60;;;1.50;99.90;;;;;;5106257;28;20217;-83
2021/04/14 02:34:17;;;;;;;12.50;8.70;;;1.50;99.90;;;;;;5093891;28;20231;-82
2021/04/14 02:36:43;;;;;;;11.97;8.43;;;1.40;99.90;;;;;;5103694;28;20288;-82
2021/04/14 02:39:11;;;;;;;12.93;8.70;;;1.40;99.90;;;;;;5112148;28;20348;-84
2021/04/14 02:41:38;;;;;;;12.47;8.83;;;1.50;99.90;;;;;;5093112;28;20727;-83
2021/04/14 02:44:05;;;;;;;13.20;8.77;;;1.50;99.90;;;;;;5094792;28;20271;-82
2021/04/14 02:46:32;;;;;;;12.90;9.30;;;1.40;99.90;;;;;;5094210;28;20625;-82
2021/04/14 02:48:59;;;;;;;13.30;8.97;;;1.40;99.90;;;;;;5094539;28;20695;-83
2021/04/14 02:51:26;;;;;;;14.30;9.60;;;1.30;99.90;;;;;;5094983;28;20210;-83
2021/04/14 02:53:52;;;;;;;14.53;9.07;;;1.30;99.90;;;;;;5105899;28;20240;-82
2021/04/14 02:56:21;;;;;;;13.37;8.73;;;1.30;99.90;;;;;;5094018;28;20198;-83
2021/04/14 02:58:47;;;;;;;12.67;8.13;;;1.20;99.90;;;;;;5094020;28;20223;-82
2021/04/14 03:01:15;;;;;;;13.23;8.90;;;1.20;99.90;;;;;;5101169;28;20633;-82
2021/04/14 03:03:41;;;;;;;12.57;8.70;;;1.10;99.90;;;;;;5114599;28;20209;-82
2021/04/14 03:06:09;;;;;;;15.03;9.00;;;1.20;99.90;;;;;;5096245;28;20729;-82
2021/04/14 03:08:35;;;;;;;13.43;9.70;;;1.20;99.90;;;;;;5106296;28;20194;-83
2021/04/14 03:11:02;;;;;;;12.00;8.50;;;1.10;99.90;;;;;;5093549;28;20211;-82
2021/04/14 03:13:29;;;;;;;13.20;8.43;;;1.10;99.90;;;;;;5093011;28;20736;-82
2021/04/14 03:15:55;;;;;;;13.70;9.07;;;1.10;99.90;;;;;;5093518;28;20238;-82
2021/04/14 03:18:22;;;;;;;12.77;8.77;;;1.00;99.90;;;;;;5094136;28;20222;-82
2021/04/14 03:20:48;;;;;;;11.80;8.33;;;1.00;99.90;;;;;;5093495;28;20194;-82
2021/04/14 03:23:17;;;;;;;12.97;8.33;;;1.00;99.90;;;;;;5093791;28;20210;-83
2021/04/14 03:25:43;;;;;;;12.27;9.03;;;1.10;99.90;;;;;;5092872;28;20673;-82
2021/04/14 03:28:12;;;;;;;11.70;8.37;;;1.10;99.90;;;;;;5093669;28;20198;-82
2021/04/14 03:30:41;;;;;;;12.37;8.27;;;1.00;99.90;;;;;;5093903;28;20210;-82
2021/04/14 03:33:07;;;;;;;11.57;8.60;;;1.00;99.90;;;;;;5093553;28;20233;-82
2021/04/14 03:35:34;;;;;;;12.00;8.57;;;1.10;99.90;;;;;;5092882;28;20285;-83
2021/04/14 03:38:01;;;;;;;12.07;8.30;;;1.00;99.90;;;;;;5093163;28;20238;-82
2021/04/14 03:40:29;;;;;;;15.20;9.33;;;0.90;99.90;;;;;;5093415;28;20281;-82
2021/04/14 03:42:57;;;;;;;11.80;8.13;;;0.90;99.90;;;;;;5093125;28;20290;-82
2021/04/14 03:45:30;;;;;;;12.10;8.60;;;0.90;99.90;;;;;;5092164;28;20195;-83
2021/04/14 03:47:56;;;;;;;12.60;8.20;;;0.90;99.90;;;;;;5093095;28;20496;-83
2021/04/14 03:50:23;;;;;;;12.73;8.73;;;0.90;99.90;;;;;;5085121;28;20282;-82
2021/04/14 03:52:50;;;;;;;12.57;8.27;;;0.90;99.90;;;;;;5093328;28;20203;-83
2021/04/14 03:55:19;;;;;;;11.93;8.20;;;0.90;99.90;;;;;;5091909;28;22092;-82
2021/04/14 03:57:47;;;;;;;12.57;8.67;;;0.90;99.90;;;;;;5074797;28;20195;-82
2021/04/14 04:00:15;;;;;;;11.57;8.23;;;0.90;99.90;;;;;;5092166;28;20701;-82
2021/04/14 04:02:42;;;;;;;12.47;8.33;;;0.90;99.90;;;;;;5093586;28;20685;-83
2021/04/14 04:05:10;;;;;;;12.40;9.00;;;0.90;99.90;;;;;;5078771;28;20331;-82
2021/04/14 04:07:37;;;;;;;12.77;8.83;;;0.80;99.90;;;;;;5110095;28;20263;-83
2021/04/14 04:10:05;;;;;;;13.40;8.77;;;1.00;99.90;;;;;;5096140;28;20698;-82
2021/04/14 04:12:31;;;;;;;11.83;8.20;;;1.00;99.90;;;;;;5092218;28;20244;-82
2021/04/14 04:14:59;;;;;;;12.47;8.53;;;1.00;99.90;;;;;;5092929;28;20667;-83
2021/04/14 04:17:25;;;;;;;12.93;8.77;;;1.00;99.90;;;;;;5092702;28;20210;-82
2021/04/14 04:19:51;;;;;;;14.50;8.77;;;1.00;99.90;;;;;;5092387;28;20697;-83
2021/04/14 04:22:19;;;;;;;14.70;9.23;;;0.90;99.90;;;;;;5112449;28;20262;-82
2021/04/14 04:24:47;;;;;;;12.70;8.90;;;0.90;99.90;;;;;;5092615;28;20229;-82
2021/04/14 04:27:13;;;;;;;12.33;8.37;;;0.80;99.90;;;;;;5092487;28;20205;-83
2021/04/14 04:29:40;;;;;;;14.10;9.17;;;0.80;99.90;;;;;;5092535;28;20198;-82
2021/04/14 04:32:08;;;;;;;12.70;8.70;;;0.90;99.90;;;;;;5092147;28;20234;-82
2021/04/14 04:34:34;;;;;;;13.63;8.90;;;0.90;99.90;;;;;;5102592;28;20262;-82
2021/04/14 04:37:01;;;;;;;12.77;8.57;;;0.90;99.90;;;;;;5094523;28;20206;-82
2021/04/14 04:39:28;;;;;;;12.70;8.60;;;0.80;99.90;;;;;;5092251;28;20314;-82
2021/04/14 04:41:54;;;;;;;14.73;9.23;;;0.80;99.90;;;;;;5091702;28;20202;-82
2021/04/14 04:44:21;;;;;;;12.57;8.40;;;0.70;99.90;;;;;;5092228;28;20199;-82
2021/04/14 04:46:47;;;;;;;11.97;7.73;;;0.60;99.90;;;;;;5091925;28;20303;-82
2021/04/14 04:49:14;;;;;;;11.23;8.20;;;0.50;99.90;;;;;;5091715;28;20194;-82
2021/04/14 04:51:41;;;;;;;14.70;8.73;;;0.50;99.90;;;;;;5091918;28;20314;-82
2021/04/14 04:54:08;;;;;;;13.80;8.80;;;0.50;99.90;;;;;;5092030;28;20199;-82
2021/04/14 04:56:34;;;;;;;12.53;9.10;;;0.50;99.90;;;;;;5093193;28;20297;-82
2021/04/14 04:59:01;;;;;;;12.97;8.80;;;0.60;99.90;;;;;;5094301;28;20309;-83
2021/04/14 05:01:28;;;;;;;12.67;8.83;;;0.60;99.90;;;;;;5091342;28;20703;-82
2021/04/14 05:03:54;;;;;;;14.60;9.00;;;0.60;99.90;;;;;;5090983;28;20273;-82
2021/04/14 05:06:22;;;;;;;11.67;8.40;;;0.50;99.90;;;;;;5091688;28;20301;-83
2021/04/14 05:08:48;;;;;;;12.47;8.43;;;0.50;99.90;;;;;;5091644;28;20249;-82
2021/04/14 05:11:15;;;;;;;12.40;8.70;;;0.40;99.90;;;;;;5097366;28;20276;-83
2021/04/14 05:13:41;;;;;;;12.83;8.87;;;0.40;99.90;;;;;;5091052;28;20305;-82
2021/04/14 05:16:08;;;;;;;13.13;9.13;;;0.40;99.90;;;;;;5092159;28;20205;-84
2021/04/14 05:18:35;;;;;;;11.80;8.80;;;0.40;99.90;;;;;;5091420;28;20249;-81
2021/04/14 05:21:03;;;;;;;13.23;8.97;;;0.40;99.90;;;;;;5090672;28;20267;-81
2021/04/14 05:23:30;;;;;;;15.00;9.23;;;0.50;99.90;;;;;;5092574;28;20293;-80
2021/04/14 05:25:57;;;;;;;13.20;8.87;;;0.50;99.90;;;;;;5091684;28;20199;-81
2021/04/14 05:28:24;;;;;;;13.47;8.97;;;0.50;99.90;;;;;;5091427;28;20199;-80
2021/04/14 05:30:52;;;;;;;14.43;9.30;;;0.60;99.90;;;;;;5105354;28;20197;-80
2021/04/14 05:33:18;;;;;;;15.23;9.27;;;0.60;99.90;;;;;;5108009;28;20371;-81
2021/04/14 05:35:45;;;;;;;12.57;8.67;;;0.60;99.90;;;;;;5091102;28;20748;-81
2021/04/14 05:38:12;;;;;;;12.33;8.90;;;0.60;99.90;;;;;;5091110;28;20229;-80
2021/04/14 05:40:40;;;;;;;13.47;9.07;;;0.60;99.90;;;;;;5095426;28;20277;-81
2021/04/14 05:43:17;;;;;;;13.63;9.37;;;0.60;99.90;;;;;;5091435;28;20210;-81
2021/04/14 05:45:45;;;;;;;13.20;9.20;;;0.70;99.90;;;;;;5094987;28;20256;-81
2021/04/14 05:48:12;;;;;;;13.27;8.90;;;0.80;99.90;;;;;;5090693;28;20256;-81
2021/04/14 05:50:39;;;;;;;13.20;9.27;;;0.80;99.90;;;;;;5090692;28;20281;-81
2021/04/14 05:53:06;;;;;;;12.17;9.03;;;0.90;99.90;;;;;;5090164;28;20981;-82
2021/04/14 05:55:32;;;;;;;13.10;9.50;;;1.00;99.90;;;;;;5090823;28;20198;-83
2021/04/14 05:57:59;;;;;;;12.27;9.30;;;1.30;99.90;;;;;;5094275;28;20707;-81
2021/04/14 06:00:26;;;;;;;14.60;9.47;;;1.60;99.90;;;;;;5083492;28;20254;-81
2021/04/14 06:02:52;;;;;;;12.87;9.73;;;1.90;99.90;;;;;;5090969;28;20281;-81
2021/04/14 06:05:21;;;;;;;11.53;9.03;;;2.30;99.90;;;;;;5090995;28;20212;-80
2021/04/14 06:07:47;;;;;;;14.27;9.33;;;2.70;99.90;;;;;;5091641;28;20223;-81
2021/04/14 06:10:21;;;;;;;11.67;8.93;;;3.10;99.90;;;;;;5094699;28;20277;-81
2021/04/14 06:12:48;;;;;;;11.17;8.60;;;3.50;99.90;;;;;;5094936;28;20351;-82
2021/04/14 06:15:18;;;;;;;14.13;9.43;;;3.90;99.90;;;;;;5095029;28;20198;-82
2021/04/14 06:17:44;;;;;;;14.37;8.90;;;4.30;99.90;;;;;;5100376;28;20246;-80
2021/04/14 06:20:14;;;;;;;12.93;9.93;;;4.60;99.90;;;;;;5093707;28;20219;-81
2021/04/14 06:22:40;;;;;;;11.87;9.30;;;4.90;99.90;;;;;;5094790;28;20582;-82
2021/04/14 06:25:10;;;;;;;12.13;9.53;;;5.30;99.90;;;;;;5094351;28;20603;-81
2021/04/14 06:27:41;;;;;;;10.77;8.87;;;5.80;99.90;;;;;;5103677;28;20258;-80
2021/04/14 06:30:08;;;;;;;12.90;9.43;;;6.10;99.90;;;;;;5094357;28;20284;-81
2021/04/14 06:32:35;;;;;;;13.37;9.83;;;6.80;99.90;;;;;;5093780;28;20279;-81
2021/04/14 06:35:02;;;;;;;12.50;9.13;;;7.20;99.90;;;;;;5093781;28;20276;-81
2021/04/14 06:37:29;;;;;;;11.60;9.30;;;7.50;99.90;;;;;;5094660;28;20197;-81
2021/04/14 06:40:18;;;;;;;14.07;9.37;;;7.70;99.90;;;;;;5093442;28;20266;-80
2021/04/14 06:42:54;;;;;;;11.60;9.07;;;8.10;99.90;;;;;;5093851;28;20204;-82
2021/04/14 06:45:23;;;;;;;11.60;9.30;;;8.60;99.90;;;;;;5094058;28;20207;-81
2021/04/14 06:48:11;;;;;;;11.77;9.33;;;9.20;99.90;;;;;;5093604;28;20281;-82
2021/04/14 06:50:42;;;;;;;12.37;9.43;;;9.40;99.90;;;;;;5093792;28;20204;-82
2021/04/14 06:53:19;;;;;;;11.43;9.07;;;9.80;99.90;;;;;;5093459;28;20196;-82
2021/04/14 06:55:55;;;;;;;10.30;9.20;;;10.20;99.90;;;;;;5093219;28;20232;-81
2021/04/14 06:58:29;;;;;;;10.50;9.20;;;10.60;99.90;;;;;;5093909;28;20283;-81
2021/04/14 07:01:00;;;;;;;10.77;9.17;;;11.00;99.90;;;;;;5094909;28;20685;-82
2021/04/14 07:03:37;;;;;;;10.40;9.30;;;11.10;99.90;;;;;;5093425;28;20233;-81
2021/04/14 07:06:07;;;;;;;11.57;10.33;;;11.20;99.90;;;;;;5093413;28;20289;-82
2021/04/14 07:08:39;;;;;;;12.17;10.73;;;10.90;99.90;;;;;;5094103;28;20574;-82
2021/04/14 07:11:19;;;;;;;11.77;10.57;;;10.40;99.90;;;;;;5093243;28;20253;-82
2021/04/14 07:13:49;;;;;;;12.37;10.57;;;10.40;99.90;;;;;;5093541;28;20308;-83
2021/04/14 07:16:53;;;;;;;12.30;10.97;;;10.90;99.90;;;;;;5093086;28;20289;-82
2021/04/14 07:19:32;;;;;;;14.30;11.23;;;11.20;99.90;;;;;;5055990;28;20222;-81
2021/04/14 07:22:09;;;;;;;12.13;10.83;;;11.40;99.90;;;;;;5093318;28;20210;-82
2021/04/14 07:24:39;;;;;;;13.67;10.60;;;11.80;99.90;;;;;;5092416;28;20256;-83
2021/04/14 07:27:12;;;;;;;11.60;10.40;;;12.00;99.90;;;;;;5092856;28;20650;-83
2021/04/14 07:29:44;;;;;;;12.40;10.80;;;11.60;99.90;;;;;;5093014;28;20286;-82
2021/04/14 07:32:21;;;;;;;11.90;10.20;;;11.10;99.90;;;;;;5092229;28;20214;-82
2021/04/14 07:35:09;;;;;;;11.50;10.40;;;11.40;99.90;;;;;;5092962;28;20271;-83
2021/04/14 07:37:44;;;;;;;12.70;9.83;;;11.80;99.90;;;;;;5091736;28;20206;-83
2021/04/14 07:40:18;;;;;;;12.13;10.70;;;12.60;99.90;;;;;;5078976;28;20253;-83
2021/04/14 07:42:53;;;;;;;10.93;9.83;;;11.30;99.90;;;;;;5091674;28;20574;-83
2021/04/14 07:45:25;;;;;;;15.53;10.63;;;11.80;99.90;;;;;;5092936;28;20293;-83
2021/04/14 07:47:59;;;;;;;12.47;10.60;;;12.50;99.90;;;;;;5086978;28;20194;-83
2021/04/14 07:50:32;;;;;;;12.27;10.80;;;12.20;99.90;;;;;;5092954;28;20209;-82
2021/04/14 07:52:59;;;;;;;13.67;10.53;;;12.20;99.90;;;;;;5090999;28;20198;-83
2021/04/14 07:55:29;;;;;;;12.97;11.20;;;12.70;99.90;;;;;;5092035;28;20230;-83
2021/04/14 07:58:06;;;;;;;12.37;11.07;;;12.70;99.90;;;;;;5090992;28;20225;-82
2021/04/14 08:00:39;;;;;;;12.67;11.33;;;12.10;99.90;;;;;;5090847;28;20249;-81
2021/04/14 08:03:14;;;;;;;14.10;11.13;;;12.10;99.90;;;;;;5091265;28;20203;-81
2021/04/14 08:05:42;;;;;;;13.03;11.63;;;11.90;99.90;;;;;;5092051;28;20236;-82
2021/04/14 08:08:17;;;;;;;14.07;11.33;;;13.20;99.90;;;;;;5092384;28;20202;-81
2021/04/14 08:10:58;;;;;;;12.53;11.23;;;12.40;99.90;;;;;;5091706;28;20300;-81
2021/04/14 08:13:28;;;;;;;12.13;10.60;;;12.70;99.90;;;;;;5087917;28;20257;-81
2021/04/14 08:15:55;;;;;;;12.00;10.63;;;13.10;99.90;;;;;;5093115;28;20205;-80
2021/04/14 08:18:26;;;;;;;12.40;10.77;;;13.60;99.90;;;;;;5093771;28;20593;-80
2021/04/14 08:21:08;;;;;;;13.00;10.90;;;13.10;99.90;;;;;;5092003;28;20254;-81
2021/04/14 08:23:35;;;;;;;12.70;11.07;;;12.90;99.90;;;;;;5097622;28;20285;-81
2021/04/14 08:26:14;;;;;;;14.10;10.63;;;12.90;99.90;;;;;;5091901;28;20222;-80
2021/04/14 08:28:46;;;;;;;13.17;10.60;;;13.80;99.90;;;;;;5076794;28;20725;-80
2021/04/14 08:31:20;;;;;;;12.10;10.80;;;13.50;99.90;;;;;;5081098;28;20735;-82
2021/04/14 08:33:47;;;;;;;13.30;10.43;;;14.20;99.90;;;;;;5090612;28;20260;-81
2021/04/14 08:36:27;;;;;;;12.57;10.10;;;13.70;98.60;;;;;;5090978;28;20238;-80
2021/04/14 08:38:53;;;;;;;13.43;10.50;;;13.80;98.20;;;;;;5086122;28;20279;-80
2021/04/14 08:41:28;;;;;;;13.67;10.43;;;13.70;98.30;;;;;;5091263;28;20293;-80
2021/04/14 08:44:05;;;;;;;12.93;10.40;;;14.50;98.30;;;;;;5090132;28;20685;-82
2021/04/14 08:46:35;;;;;;;13.17;10.57;;;14.50;96.20;;;;;;5091114;28;20240;-80
2021/04/14 08:49:04;;;;;;;14.47;11.27;;;14.50;96.40;;;;;;5090975;28;20277;-81
2021/04/14 08:51:36;;;;;;;12.33;10.30;;;14.40;94.80;;;;;;5092636;28;20191;-80
2021/04/14 08:54:04;;;;;;;15.60;11.07;;;14.70;94.10;;;;;;5084366;28;20206;-81
2021/04/14 08:56:31;;;;;;;12.70;11.03;;;14.20;92.50;;;;;;5091028;28;20284;-79
2021/04/14 08:58:57;;;;;;;13.57;11.10;;;14.70;92.40;;;;;;5090337;28;20241;-80
2021/04/14 09:01:26;;;;;;;14.77;11.43;;;15.20;93.40;;;;;;5092843;28;20300;-81
2021/04/14 09:03:56;;;;;;;12.43;10.50;;;15.30;90.90;;;;;;5073984;28;20197;-81
2021/04/14 09:06:25;;;;;;;12.57;11.23;;;15.50;91.50;;;;;;5093153;28;20285;-86
2021/04/14 09:08:54;;;;;;;13.40;11.57;;;14.90;84.80;;;;;;5089628;28;20744;-84
2021/04/14 09:11:23;;;;;;;12.97;11.33;;;14.30;85.30;;;;;;5093234;28;20217;-86
2021/04/14 09:13:56;;;;;;;13.50;11.03;;;15.40;82.10;;;;;;5092607;28;20217;-87
2021/04/14 09:16:35;;;;;;;13.93;12.03;;;15.90;83.90;;;;;;5092099;28;20691;-86
2021/04/14 09:19:13;;;;;;;13.10;11.07;;;16.10;86.80;;;;;;5091690;28;20735;-87
2021/04/14 09:21:47;;;;;;;14.60;11.17;;;15.50;81.90;;;;;;5093589;28;20194;-87
2021/04/14 09:24:30;;;;;;;13.63;12.17;;;15.20;82.20;;;;;;5091965;28;20226;-86
2021/04/14 09:27:02;;;;;;;12.47;11.17;;;15.20;80.10;;;;;;5090404;28;20194;-87
2021/04/14 09:29:35;;;;;;;12.90;11.47;;;15.50;80.30;;;;;;5089862;28;20745;-86
2021/04/14 09:32:09;;;;;;;12.50;11.20;;;16.10;79.70;;;;;;5090708;28;20197;-87
2021/04/14 09:34:39;;;;;;;13.27;11.67;;;15.90;83.20;;;;;;5089971;28;20233;-86
2021/04/14 09:37:23;;;;;;;12.13;10.90;;;16.40;77.80;;;;;;5090838;28;20301;-88
2021/04/14 09:39:59;;;;;;;14.00;12.03;;;16.10;73.60;;;;;;5090619;28;20897;-87
2021/04/14 09:42:41;;;;;;;11.77;10.57;;;15.20;76.40;;;;;;5087746;28;20202;-83
2021/04/14 09:45:33;;;;;;;12.50;11.20;;;15.60;70.90;;;;;;5089148;28;20210;-85
2021/04/14 09:48:16;;;;;;;12.20;11.00;;;15.50;75.40;;;;;;5088625;28;20693;-87
2021/04/14 09:50:48;;;;;;;11.00;9.87;;;16.10;74.60;;;;;;5094782;28;20198;-85
2021/04/14 09:53:35;;;;;;;11.57;10.00;;;15.70;76.60;;;;;;5095064;28;20198;-86
2021/04/14 09:56:11;;;;;;;12.50;10.57;;;15.40;75.10;;;;;;5095334;28;20271;-87
2021/04/14 09:58:45;;;;;;;11.07;9.97;;;15.80;74.40;;;;;;5090242;28;20210;-86
2021/04/14 10:01:23;;;;;;;10.73;9.63;;;16.50;71.70;;;;;;5091530;28;20272;-86
2021/04/14 10:21:49;;;;;;;11.73;10.50;;;16.40;71.30;;;;;;4776265;29;20296;-87
2021/04/14 10:24:35;;;;;;;12.63;10.83;;;15.60;78.50;;;;;;4876179;29;20210;-88
2021/04/14 10:36:23;;;;;;;10.43;9.33;;;15.60;72.80;;;;;;4796340;29;20215;-86
2021/04/14 10:38:53;;;;;;;11.70;10.50;;;16.00;72.40;;;;;;4854937;29;20207;-87
2021/04/14 10:41:23;;;;;;;12.30;10.63;;;14.80;76.10;;;;;;4861623;29;20199;-91
2021/04/14 10:43:50;;;;;;;9.30;8.40;;;15.90;75.10;;;;;;4939775;29;20745;-89
2021/04/14 10:46:20;;;;;;;12.57;8.97;;;16.30;70.60;;;;;;4935064;29;20208;-83
2021/04/14 10:48:50;;;;;;;9.83;8.83;;;16.70;72.90;;;;;;4935985;29;20227;-85
2021/04/14 10:51:21;;;;;;;9.33;8.43;;;16.30;71.70;;;;;;4950838;28;20203;-85
2021/04/14 10:53:51;;;;;;;10.67;9.47;;;17.00;72.30;;;;;;5022232;28;20790;-85
2021/04/14 10:56:21;;;;;;;10.53;9.43;;;16.50;70.00;;;;;;5094675;28;20201;-83
2021/04/14 10:58:49;;;;;;;12.03;10.77;;;16.80;72.50;;;;;;5095415;28;20222;-86
2021/04/14 11:01:18;;;;;;;11.00;9.90;;;16.80;68.90;;;;;;5095446;28;20361;-84
2021/04/14 11:03:57;;;;;;;10.33;9.33;;;16.50;70.80;;;;;;5093913;28;20289;-84
2021/04/14 11:06:23;;;;;;;10.00;9.10;;;15.80;72.70;;;;;;5093764;28;20198;-84
2021/04/14 11:08:51;;;;;;;10.60;9.50;;;17.40;73.40;;;;;;5094206;28;20281;-85
2021/04/14 11:11:17;;;;;;;9.93;8.93;;;16.70;73.40;;;;;;5093698;28;20198;-85
2021/04/14 11:13:44;;;;;;;10.30;9.00;;;15.90;74.80;;;;;;5092264;28;20242;-81
2021/04/14 11:16:13;;;;;;;9.30;8.40;;;15.50;77.80;;;;;;5092941;28;20199;-85
2021/04/14 11:18:41;;;;;;;10.17;9.17;;;16.10;73.00;;;;;;5103937;28;20214;-85
2021/04/14 11:21:23;;;;;;;11.53;9.23;;;16.00;72.10;;;;;;5093308;28;20342;-84
2021/04/14 11:24:01;;;;;;;9.93;8.80;;;16.10;79.30;;;;;;5092751;28;20256;-85
2021/04/14 11:26:28;;;;;;;10.43;9.37;;;15.90;78.20;;;;;;5092385;28;20682;-87
2021/04/14 11:28:56;;;;;;;10.10;9.10;;;15.90;75.60;;;;;;5093129;28;20226;-84
2021/04/14 11:31:34;;;;;;;10.97;8.77;;;16.30;78.10;;;;;;5092548;28;20677;-84
2021/04/14 11:34:16;;;;;;;9.47;8.47;;;16.50;76.80;;;;;;5094085;28;20245;-85
2021/04/14 11:36:55;;;;;;;11.37;8.77;;;16.00;77.40;;;;;;5091472;28;20218;-86
2021/04/14 11:39:23;;;;;;;10.63;9.53;;;16.20;77.50;;;;;;5087967;28;20218;-86
2021/04/14 11:42:11;;;;;;;10.07;9.00;;;16.00;82.80;;;;;;5091314;28;20211;-85
2021/04/14 11:44:42;;;;;;;9.37;8.03;;;16.70;80.00;;;;;;5091222;28;20191;-83
2021/04/14 11:47:22;;;;;;;9.00;7.90;;;16.10;82.80;;;;;;5090526;28;20572;-82
2021/04/14 11:49:48;;;;;;;9.83;8.43;;;16.30;76.40;;;;;;5091172;28;20654;-84
2021/04/14 11:52:21;;;;;;;8.73;7.80;;;15.50;76.40;;;;;;5090228;28;20275;-83
2021/04/14 11:54:50;;;;;;;10.87;8.00;;;16.10;76.60;;;;;;5091160;28;20198;-82
2021/04/14 11:57:23;;;;;;;9.37;7.97;;;15.60;73.20;;;;;;5092852;28;20620;-78
2021/04/14 12:00:04;;;;;;;8.87;7.73;;;16.10;78.00;;;;;;5089042;28;20313;-78
2021/04/14 12:02:31;;;;;;;12.70;9.23;;;15.80;78.90;;;;;;5093000;28;20255;-78
2021/04/14 12:05:00;;;;;;;11.03;8.57;;;16.30;79.90;;;;;;5090982;28;20194;-79
2021/04/14 12:07:26;;;;;;;9.67;8.00;;;15.10;78.30;;;;;;5091021;28;20723;-78
2021/04/14 12:09:54;;;;;;;8.57;7.63;;;16.30;78.90;;;;;;5090768;28;20218;-78
2021/04/14 12:12:21;;;;;;;10.40;7.87;;;16.10;75.90;;;;;;5090137;28;20682;-78
2021/04/14 12:14:47;;;;;;;14.10;8.00;;;16.30;76.10;;;;;;5091012;28;20244;-78
2021/04/14 12:17:14;;;;;;;7.87;7.07;;;16.00;78.30;;;;;;5090756;28;20276;-79
2021/04/14 12:19:42;;;;;;;9.40;6.60;;;15.90;79.30;;;;;;5091565;28;20344;-78
2021/04/14 12:22:08;;;;;;;8.10;6.27;;;15.60;76.20;;;;;;5091820;28;20198;-78
2021/04/14 12:24:35;;;;;;;6.60;5.60;;;15.50;76.40;;;;;;5091619;28;20289;-78
2021/04/14 12:27:02;;;;;;;7.07;5.67;;;16.30;75.70;;;;;;5091421;28;20202;-78
2021/04/14 12:29:29;;;;;;;7.43;5.70;;;15.50;74.00;;;;;;5090451;28;20194;-78
2021/04/14 12:31:57;;;;;;;6.87;5.77;;;15.30;78.20;;;;;;5090765;28;20198;-78
2021/04/14 12:34:24;;;;;;;7.03;6.33;;;15.60;77.70;;;;;;5091316;28;20279;-79
2021/04/14 12:36:50;;;;;;;7.70;5.80;;;15.40;75.40;;;;;;5091299;28;20277;-80
2021/04/14 12:39:17;;;;;;;6.27;5.67;;;16.00;76.00;;;;;;5091483;28;20225;-81
2021/04/14 12:41:43;;;;;;;6.33;4.53;;;15.10;75.40;;;;;;5090777;28;20627;-80
2021/04/14 12:44:11;;;;;;;6.67;5.10;;;15.30;74.80;;;;;;5091145;28;20205;-80
2021/04/14 12:46:39;;;;;;;5.27;4.60;;;15.30;78.40;;;;;;5090812;28;20226;-82
2021/04/14 12:50:01;;;;;;;6.37;4.70;;;14.90;75.70;;;;;;5087276;28;20292;-82
2021/04/14 12:57:00;;;;;;;;;;;;;;;;;;;;;
2021/04/14 12:59:33;;;;;;;6.80;5.70;;;15.70;76.80;;;;;;4917433;29;20234;-81
2021/04/14 13:05:41;;;;;;;5.97;4.70;;;14.80;78.00;;;;;;4925740;29;20230;-81
2021/04/14 13:08:16;;;;;;;6.03;5.00;;;14.70;82.50;;;;;;4925042;29;20212;-81
2021/04/14 13:10:47;;;;;;;7.33;4.90;;;15.60;78.90;;;;;;4930391;29;20710;-81
2021/04/14 13:13:14;;;;;;;4.80;4.30;;;15.80;73.60;;;;;;4930806;29;20806;-82
2021/04/14 13:15:44;;;;;;;6.37;4.67;;;14.50;74.70;;;;;;4928728;29;20204;-82
2021/04/14 13:18:12;;;;;;;4.97;4.47;;;13.80;78.80;;;;;;4929637;29;20310;-80
2021/04/14 13:20:38;;;;;;;6.27;4.40;;;14.30;77.90;;;;;;4931583;29;20299;-80
2021/04/14 13:23:11;;;;;;;5.80;4.17;;;15.50;75.40;;;;;;4931440;29;20207;-81
2021/04/14 13:25:49;;;;;;;6.73;4.27;;;15.60;77.50;;;;;;4930708;29;20295;-81
2021/04/14 13:28:22;;;;;;;6.50;4.40;;;15.60;74.60;;;;;;4964093;28;20679;-80
2021/04/14 13:30:55;;;;;;;7.03;4.73;;;14.80;77.00;;;;;;5015608;28;20668;-81
2021/04/14 13:33:29;;;;;;;5.13;4.60;;;15.10;77.70;;;;;;5090852;28;20289;-81